Time;durP1;ratioP1;P1;durP2;ratioP2;P2;SDS_P1;SDS_P2;PMS_P1;PMS_P2;Temp;Humidity;BMP_temperature;BMP_pressure;BME280_temperature;BME280_humidity;BME280_pressure;Samples;Min_cycle;Max_cycle;Signal;HPM_P1;HPM_P2
2023/08/01 00:02:14;;;;;;;62.85;59.85;;;;;;;20.53;57.15;99819.41;4977924;28;20073;-72
2023/08/01 00:04:39;;;;;;;67.63;64.22;;;;;;;20.52;57.62;99815.06;4988615;28;20073;-72
2023/08/01 00:07:05;;;;;;;65.25;62.15;;;;;;;20.52;57.49;99813.13;4990654;28;20484;-72
2023/08/01 00:09:30;;;;;;;67.30;64.03;;;;;;;20.52;57.12;99796.66;4985636;28;20078;-72
2023/08/01 00:11:56;;;;;;;66.90;63.60;;;;;;;20.52;57.32;99809.59;4984854;28;20043;-72
2023/08/01 00:14:24;;;;;;;63.80;60.75;;;;;;;20.50;57.51;99806.38;4984545;28;20380;-72
2023/08/01 00:16:52;;;;;;;66.70;63.35;;;;;;;20.50;57.37;99809.91;4989328;28;20053;-72
2023/08/01 00:19:18;;;;;;;65.43;62.38;;;;;;;20.49;57.18;99796.53;4989579;28;20035;-72
2023/08/01 00:21:43;;;;;;;67.72;64.32;;;;;;;20.47;57.53;99802.34;4988376;28;20057;-72
2023/08/01 00:24:09;;;;;;;63.97;60.78;;;;;;;20.48;57.16;99797.66;4986593;28;20499;-73
2023/08/01 00:26:34;;;;;;;64.18;60.78;;;;;;;20.47;57.09;99796.88;4985971;28;20038;-78
2023/08/01 00:29:00;;;;;;;67.78;64.47;;;;;;;20.48;57.25;99789.44;4983428;28;20130;-72
2023/08/01 00:31:25;;;;;;;68.72;64.95;;;;;;;20.47;57.01;99779.59;4997495;28;20042;-71
2023/08/01 00:33:51;;;;;;;65.68;62.47;;;;;;;20.45;57.25;99782.66;4979511;28;20030;-71
2023/08/01 00:36:16;;;;;;;63.33;60.35;;;;;;;20.45;57.22;99788.16;4984051;28;20038;-71
2023/08/01 00:38:43;;;;;;;68.10;64.35;;;;;;;20.45;57.10;99790.09;4983756;28;20048;-72
2023/08/01 00:41:09;;;;;;;65.03;61.85;;;;;;;20.44;57.19;99785.75;4988992;28;20084;-71
2023/08/01 00:43:34;;;;;;;67.80;64.05;;;;;;;20.43;57.31;99781.41;4983157;28;20035;-73
2023/08/01 00:46:01;;;;;;;64.78;61.55;;;;;;;20.42;57.29;99775.13;4986625;28;20034;-73
2023/08/01 00:48:28;;;;;;;63.55;60.25;;;;;;;20.42;57.44;99782.53;4990098;28;20037;-77
2023/08/01 00:50:56;;;;;;;66.55;62.83;;;;;;;20.42;57.50;99793.50;4986957;28;20234;-73
2023/08/01 00:53:23;;;;;;;66.80;63.33;;;;;;;20.41;57.19;99795.47;4986099;28;20026;-72
2023/08/01 00:55:49;;;;;;;64.95;61.42;;;;;;;20.40;57.50;99790.28;4992038;28;20047;-72
2023/08/01 00:58:15;;;;;;;67.50;64.18;;;;;;;20.40;57.34;99793.03;4984535;28;20035;-72
2023/08/01 01:00:40;;;;;;;65.53;62.05;;;;;;;20.39;57.13;99788.69;4982556;28;20163;-71
2023/08/01 01:03:05;;;;;;;63.47;60.17;;;;;;;20.38;57.50;99782.38;4987363;28;20037;-74
2023/08/01 01:05:35;;;;;;;63.92;60.88;;;;;;;20.37;56.97;99777.25;4987576;28;20312;-79
2023/08/01 01:08:02;;;;;;;65.30;61.90;;;;;;;20.36;57.54;99776.44;4982570;28;20038;-72
2023/08/01 01:10:27;;;;;;;66.88;63.22;;;;;;;20.36;57.02;99775.63;4984852;28;20432;-72
2023/08/01 01:12:53;;;;;;;66.63;63.05;;;;;;;20.35;57.53;99780.31;4982403;28;20035;-72
2023/08/01 01:15:18;;;;;;;64.30;60.78;;;;;;;20.34;57.51;99780.66;4987742;28;20030;-74
2023/08/01 01:17:44;;;;;;;65.13;61.78;;;;;;;20.32;57.35;99787.25;4997475;28;20038;-71
2023/08/01 01:20:09;;;;;;;63.25;59.95;;;;;;;20.32;57.05;99784.53;4990183;28;20509;-73
2023/08/01 01:22:36;;;;;;;64.05;60.65;;;;;;;20.32;57.07;99780.97;4982699;28;20049;-72
2023/08/01 01:25:03;;;;;;;64.65;61.38;;;;;;;20.31;57.44;99779.38;4978503;28;20400;-74
2023/08/01 01:27:29;;;;;;;64.00;60.42;;;;;;;20.30;56.96;99780.50;4982005;28;20060;-72
2023/08/01 01:29:55;;;;;;;63.40;60.22;;;;;;;20.28;57.03;99775.34;4981208;28;20129;-72
2023/08/01 01:32:21;;;;;;;64.25;60.83;;;;;;;20.30;57.22;99777.75;4983313;28;20673;-72
2023/08/01 01:34:47;;;;;;;67.05;63.30;;;;;;;20.27;57.01;99778.44;4980426;28;20046;-71
2023/08/01 01:37:12;;;;;;;66.82;63.30;;;;;;;20.27;57.23;99779.22;4982103;28;20483;-72
2023/08/01 01:39:38;;;;;;;68.55;65.05;;;;;;;20.27;57.35;99773.75;4987334;28;20045;-72
2023/08/01 01:42:03;;;;;;;66.57;62.25;;;;;;;20.26;57.03;99769.41;4980295;28;20046;-73
2023/08/01 01:44:29;;;;;;;67.88;63.85;;;;;;;20.25;57.05;99762.31;4986906;28;20034;-74
2023/08/01 01:46:54;;;;;;;65.13;61.55;;;;;;;20.24;56.91;99768.94;4983544;28;20058;-74
2023/08/01 01:49:19;;;;;;;65.45;62.33;;;;;;;20.24;57.32;99768.13;4983405;28;20089;-72
2023/08/01 01:51:45;;;;;;;66.10;62.60;;;;;;;20.24;57.03;99773.63;4990448;28;20453;-72
2023/08/01 01:54:10;;;;;;;64.93;61.58;;;;;;;20.22;57.44;99764.91;4982416;28;20042;-73
2023/08/01 01:56:36;;;;;;;64.05;60.45;;;;;;;20.21;57.03;99772.34;4982658;28;20470;-73
2023/08/01 01:59:02;;;;;;;64.45;61.15;;;;;;;20.20;57.39;99776.19;4981786;28;20041;-72
2023/08/01 02:01:27;;;;;;;66.20;62.85;;;;;;;20.20;57.53;99767.97;4981125;28;20422;-71
2023/08/01 02:03:52;;;;;;;68.15;63.83;;;;;;;20.17;56.85;99763.16;5000278;28;20030;-72
2023/08/01 02:06:18;;;;;;;65.78;62.38;;;;;;;20.18;56.89;99769.44;4982859;28;20035;-72
2023/08/01 02:08:43;;;;;;;66.97;62.42;;;;;;;20.16;56.79;99767.03;4947209;28;1131190;-73
2023/08/01 02:11:09;;;;;;;68.13;64.50;;;;;;;20.16;57.19;99758.81;4986854;28;20077;-73
2023/08/01 02:13:34;;;;;;;67.18;63.58;;;;;;;20.15;57.50;99768.16;4984970;28;20092;-72
2023/08/01 02:16:00;;;;;;;67.55;64.05;;;;;;;20.15;57.25;99759.13;4979791;28;20034;-72
2023/08/01 02:18:25;;;;;;;68.07;64.32;;;;;;;20.14;57.34;99765.78;4989687;28;20065;-71
2023/08/01 02:20:50;;;;;;;66.13;62.28;;;;;;;20.13;56.87;99770.44;4984650;28;20371;-72
2023/08/01 02:23:16;;;;;;;64.55;61.17;;;;;;;20.13;56.92;99770.44;4992849;28;20042;-74
2023/08/01 02:25:42;;;;;;;64.88;61.50;;;;;;;20.10;57.46;99771.09;4989826;28;20034;-72
2023/08/01 02:28:08;;;;;;;67.00;63.17;;;;;;;20.12;57.06;99776.25;4980860;28;20026;-72
2023/08/01 02:30:36;;;;;;;64.97;61.00;;;;;;;20.09;57.18;99772.25;4983042;28;20037;-73
2023/08/01 02:33:02;;;;;;;66.85;63.35;;;;;;;20.09;56.95;99777.72;4984311;28;20176;-73
2023/08/01 02:35:28;;;;;;;66.90;62.97;;;;;;;20.07;57.09;99777.25;4984248;28;20451;-72
2023/08/01 02:37:54;;;;;;;66.18;62.67;;;;;;;20.06;56.97;99779.19;4986897;28;20038;-73
2023/08/01 02:40:20;;;;;;;66.85;63.35;;;;;;;20.06;57.43;99783.88;4982228;28;20050;-73
2023/08/01 02:42:45;;;;;;;65.70;62.17;;;;;;;20.05;57.46;99779.50;4982011;28;20034;-70
2023/08/01 02:45:10;;;;;;;64.97;61.58;;;;;;;20.05;56.93;99776.75;4984824;28;20035;-70
2023/08/01 02:47:36;;;;;;;70.28;66.22;;;;;;;20.04;57.07;99781.44;4982672;28;20509;-72
2023/08/01 02:50:01;;;;;;;67.72;63.92;;;;;;;20.02;57.33;99771.94;4984986;28;20034;-72
2023/08/01 02:52:27;;;;;;;66.50;62.75;;;;;;;20.03;57.06;99773.53;4985075;28;20042;-72
2023/08/01 02:54:53;;;;;;;66.65;62.95;;;;;;;20.03;57.08;99779.84;4987482;28;20050;-72
2023/08/01 02:57:18;;;;;;;66.47;62.45;;;;;;;20.01;57.07;99778.56;4986112;28;20030;-71
2023/08/01 02:59:44;;;;;;;65.35;61.08;;;;;;;20.01;57.00;99784.84;4984773;28;20043;-72
2023/08/01 03:02:09;;;;;;;66.72;63.00;;;;;;;20.00;57.35;99785.16;4986020;28;20035;-73
2023/08/01 03:04:35;;;;;;;65.05;61.58;;;;;;;20.00;57.01;99776.94;4982131;28;20035;-70
2023/08/01 03:07:01;;;;;;;65.88;62.30;;;;;;;19.99;57.32;99786.31;4984995;28;20038;-72
2023/08/01 03:09:26;;;;;;;65.93;62.33;;;;;;;19.99;57.54;99786.31;4980020;28;20081;-73
2023/08/01 03:11:51;;;;;;;67.03;63.00;;;;;;;19.97;57.03;99781.16;4985214;28;20468;-76
2023/08/01 03:14:17;;;;;;;68.32;64.07;;;;;;;19.96;56.86;99782.28;4986555;28;20050;-73
2023/08/01 03:16:42;;;;;;;69.28;65.57;;;;;;;19.96;56.86;99784.22;4989190;28;20035;-76
2023/08/01 03:19:08;;;;;;;67.90;63.70;;;;;;;19.97;57.23;99785.84;4988287;28;20489;-73
2023/08/01 03:21:34;;;;;;;68.05;64.60;;;;;;;19.95;57.28;99788.88;4982793;28;20038;-71
2023/08/01 03:24:01;;;;;;;66.07;62.13;;;;;;;19.93;57.43;99782.94;4984353;28;20129;-71
2023/08/01 03:26:28;;;;;;;64.18;60.40;;;;;;;19.93;57.25;99785.66;4989929;28;20054;-70
2023/08/01 03:28:55;;;;;;;66.03;62.15;;;;;;;19.93;57.27;99782.13;4979281;28;20039;-72
2023/08/01 03:31:21;;;;;;;61.53;58.33;;;;;;;19.93;57.19;99784.88;4985250;28;20394;-72
2023/08/01 03:33:47;;;;;;;63.90;60.28;;;;;;;19.91;57.15;99785.22;4998680;28;20035;-73
2023/08/01 03:36:12;;;;;;;65.28;61.63;;;;;;;19.91;56.93;99789.88;4979460;28;20087;-70
2023/08/01 03:38:38;;;;;;;66.97;63.42;;;;;;;19.91;57.18;99787.13;4977428;28;20035;-72
2023/08/01 03:41:04;;;;;;;70.72;66.53;;;;;;;19.89;57.30;99791.03;4985849;28;20449;-72
2023/08/01 03:43:29;;;;;;;66.30;62.45;;;;;;;19.89;57.22;99790.22;4986701;28;20045;-72
2023/08/01 03:45:54;;;;;;;66.35;62.13;;;;;;;19.88;57.13;99789.41;4981234;28;20041;-72
2023/08/01 03:48:20;;;;;;;65.35;61.40;;;;;;;19.88;57.23;99794.91;4983986;28;20125;-71
2023/08/01 03:50:45;;;;;;;62.78;58.95;;;;;;;19.86;56.96;99783.47;4980677;28;20167;-78
2023/08/01 03:53:11;;;;;;;66.32;62.63;;;;;;;19.86;57.18;99783.47;5001595;28;20057;-71
2023/08/01 03:55:37;;;;;;;65.22;61.40;;;;;;;19.85;56.93;99784.56;4978993;28;20467;-71
2023/08/01 03:58:02;;;;;;;65.00;61.20;;;;;;;19.85;57.08;99784.56;4984793;28;20118;-72
2023/08/01 04:00:32;;;;;;;66.95;62.75;;;;;;;19.84;57.46;99788.47;4985035;28;20141;-77
2023/08/01 04:02:58;;;;;;;64.45;60.30;;;;;;;19.83;57.22;99788.78;4984045;28;20073;-69
2023/08/01 04:05:24;;;;;;;63.47;59.90;;;;;;;19.83;57.01;99784.13;4988367;28;20042;-71
2023/08/01 04:07:49;;;;;;;67.72;63.05;;;;;;;19.82;57.08;99790.72;4976477;28;20053;-74
2023/08/01 04:10:15;;;;;;;64.88;59.92;;;;;;;19.82;57.17;99779.75;4979272;28;20138;-72
2023/08/01 04:12:42;;;;;;;64.65;61.20;;;;;;;19.81;57.04;99778.16;4979112;28;20035;-73
2023/08/01 04:15:08;;;;;;;65.40;61.65;;;;;;;19.81;57.04;99782.84;4980899;28;20126;-72
2023/08/01 04:17:34;;;;;;;66.72;62.88;;;;;;;19.81;56.96;99793.81;4985272;28;20045;-73
2023/08/01 04:19:59;;;;;;;64.32;60.42;;;;;;;19.79;57.30;99793.31;4976750;28;20039;-70
2023/08/01 04:22:24;;;;;;;66.88;62.92;;;;;;;19.79;56.91;99785.91;4983169;28;20427;-71
2023/08/01 04:24:50;;;;;;;63.15;59.42;;;;;;;19.78;56.90;99776.09;4983353;28;20041;-72
2023/08/01 04:27:16;;;;;;;65.22;61.50;;;;;;;19.78;57.43;99778.81;4982832;28;20474;-74
2023/08/01 04:29:41;;;;;;;62.95;59.33;;;;;;;19.77;57.04;99781.88;4979744;28;20398;-72
2023/08/01 04:32:07;;;;;;;65.88;62.13;;;;;;;19.77;57.27;99792.84;4981773;28;20045;-71
2023/08/01 04:34:32;;;;;;;66.80;63.17;;;;;;;19.76;57.19;99791.25;4982037;28;20042;-71
2023/08/01 04:36:58;;;;;;;62.20;58.80;;;;;;;19.76;57.08;99785.75;4985412;28;20125;-72
2023/08/01 04:39:23;;;;;;;63.20;59.85;;;;;;;19.74;57.30;99777.84;4983790;28;20042;-72
2023/08/01 04:41:49;;;;;;;66.07;62.33;;;;;;;19.74;57.41;99786.06;4994645;28;20158;-72
2023/08/01 04:44:15;;;;;;;62.22;58.58;;;;;;;19.74;57.26;99785.28;4989557;28;20038;-72
2023/08/01 04:46:41;;;;;;;63.63;59.53;;;;;;;19.73;57.00;99787.22;4977651;28;20115;-71
2023/08/01 04:49:06;;;;;;;63.38;59.65;;;;;;;19.73;57.31;99783.66;4978033;28;20039;-72
2023/08/01 04:51:31;;;;;;;62.15;58.67;;;;;;;19.73;57.35;99791.88;4976083;28;20026;-70
2023/08/01 04:53:57;;;;;;;63.88;60.58;;;;;;;19.71;57.09;99784.00;4986938;28;20101;-72
2023/08/01 04:56:22;;;;;;;63.65;60.25;;;;;;;19.71;57.05;99791.41;4992974;28;20052;-72
2023/08/01 04:58:48;;;;;;;64.13;60.42;;;;;;;19.70;57.06;99795.28;4993416;28;20089;-71
2023/08/01 05:01:13;;;;;;;60.85;57.45;;;;;;;19.69;56.85;99791.72;4975141;28;20034;-72
2023/08/01 05:03:38;;;;;;;65.45;61.58;;;;;;;19.69;57.03;99804.63;4988871;28;20456;-72
2023/08/01 05:06:04;;;;;;;63.03;59.33;;;;;;;19.67;57.23;99803.00;4983938;28;20030;-72
2023/08/01 05:08:29;;;;;;;62.58;58.88;;;;;;;19.67;57.19;99796.72;4980633;28;20567;-71
2023/08/01 05:10:55;;;;;;;64.22;60.47;;;;;;;19.67;57.28;99794.00;4979114;28;20035;-72
2023/08/01 05:13:20;;;;;;;63.13;59.47;;;;;;;19.67;57.38;99802.22;4982862;28;20057;-74
2023/08/01 05:15:49;;;;;;;67.50;63.58;;;;;;;19.66;57.23;99798.66;4989602;28;20038;-73
2023/08/01 05:18:15;;;;;;;;;;;;;;;19.66;56.79;99809.59;4986966;28;20074;-72
2023/08/01 05:20:40;;;;;;;59.40;56.47;;;;;;;19.64;57.31;99805.56;4981360;28;20294;-73
2023/08/01 05:23:06;;;;;;;62.53;58.92;;;;;;;19.63;57.23;99793.00;4990294;28;20041;-73
2023/08/01 05:25:32;;;;;;;62.42;59.20;;;;;;;19.63;57.28;99806.69;4993482;28;20073;-74
2023/08/01 05:27:57;;;;;;;61.65;58.08;;;;;;;19.63;57.47;99795.72;4988079;28;20050;-70
2023/08/01 05:30:23;;;;;;;65.85;61.90;;;;;;;19.62;57.28;99805.09;4992181;28;20053;-71
2023/08/01 05:32:48;;;;;;;61.55;57.88;;;;;;;19.61;57.11;99801.56;4985446;28;20026;-70
2023/08/01 05:35:14;;;;;;;61.08;57.78;;;;;;;19.61;57.24;99811.72;4992615;28;20046;-72
2023/08/01 05:37:40;;;;;;;61.50;58.20;;;;;;;19.61;57.17;99811.72;4993188;28;20519;-70
2023/08/01 05:40:06;;;;;;;62.80;59.20;;;;;;;19.61;57.32;99819.94;4979619;28;20034;-71
2023/08/01 05:42:31;;;;;;;63.65;60.13;;;;;;;19.60;57.33;99818.31;4979166;28;20057;-71
2023/08/01 05:44:56;;;;;;;63.83;59.97;;;;;;;19.61;57.26;99822.69;4992478;28;20061;-79
2023/08/01 05:47:25;;;;;;;64.82;61.13;;;;;;;19.59;57.33;99822.19;4984946;28;20398;-74
2023/08/01 05:49:50;;;;;;;63.40;59.67;;;;;;;19.59;57.11;99820.25;4992171;28;20103;-71
2023/08/01 05:52:15;;;;;;;61.70;58.20;;;;;;;19.59;57.06;99824.94;4980600;28;20043;-71
2023/08/01 05:54:41;;;;;;;61.35;57.55;;;;;;;19.58;57.46;99824.13;4988022;28;20042;-71
2023/08/01 05:57:08;;;;;;;63.60;59.97;;;;;;;19.60;57.47;99832.00;4984851;28;20038;-78
2023/08/01 05:59:34;;;;;;;63.83;59.95;;;;;;;19.59;57.42;99835.88;4990970;28;20041;-67
2023/08/01 06:01:59;;;;;;;63.88;59.60;;;;;;;19.58;57.27;99829.59;4992626;28;20038;-69
2023/08/01 06:04:25;;;;;;;62.88;59.47;;;;;;;19.59;57.57;99838.63;4979728;28;20386;-73
2023/08/01 06:06:50;;;;;;;64.18;60.38;;;;;;;19.59;57.67;99839.41;4982967;28;20117;-73
2023/08/01 06:09:15;;;;;;;65.03;61.33;;;;;;;19.59;57.30;99841.38;5003422;28;20181;-75
2023/08/01 06:11:41;;;;;;;62.70;59.20;;;;;;;19.60;57.19;99829.25;4974617;28;20066;-73
2023/08/01 06:14:06;;;;;;;63.05;59.75;;;;;;;19.61;57.67;99841.84;5000579;28;20034;-71
2023/08/01 06:16:32;;;;;;;61.83;58.38;;;;;;;19.61;57.54;99837.16;4984022;28;20046;-71
2023/08/01 06:18:58;;;;;;;63.80;60.30;;;;;;;19.61;57.71;99844.59;4990410;28;20482;-71
2023/08/01 06:21:23;;;;;;;64.00;60.42;;;;;;;19.61;57.78;99839.91;4987520;28;20069;-71
2023/08/01 06:23:49;;;;;;;62.65;58.95;;;;;;;19.60;57.79;99835.53;4978570;28;20144;-75
2023/08/01 06:26:15;;;;;;;65.18;61.50;;;;;;;19.61;57.30;99833.63;4975283;28;20046;-72
2023/08/01 06:28:41;;;;;;;60.55;57.20;;;;;;;19.61;57.67;99837.16;4993188;28;20034;-72
2023/08/01 06:31:06;;;;;;;62.58;59.08;;;;;;;19.61;57.20;99831.69;4993468;28;20038;-72
2023/08/01 06:33:32;;;;;;;61.20;58.15;;;;;;;19.62;57.84;99837.97;4987067;28;20095;-71
2023/08/01 06:35:57;;;;;;;59.80;56.70;;;;;;;19.61;57.65;99839.13;4980274;28;20142;-76
2023/08/01 06:38:22;;;;;;;62.03;58.50;;;;;;;19.61;57.44;99836.38;4986221;28;20096;-72
2023/08/01 06:40:48;;;;;;;59.88;56.95;;;;;;;19.62;57.75;99846.19;4990069;28;20459;-73
2023/08/01 06:43:13;;;;;;;60.55;57.35;;;;;;;19.62;57.66;99849.72;5000825;28;20117;-72
2023/08/01 06:45:39;;;;;;;61.65;58.05;;;;;;;19.62;57.38;99844.25;4981050;28;20348;-72
2023/08/01 06:48:04;;;;;;;61.05;57.63;;;;;;;19.63;57.89;99854.09;4990481;28;20034;-73
2023/08/01 06:50:29;;;;;;;60.95;57.65;;;;;;;19.64;57.71;99861.16;4996397;28;20025;-72
2023/08/01 06:52:55;;;;;;;61.40;57.97;;;;;;;19.64;57.33;99854.88;4992895;28;20038;-71
2023/08/01 06:55:20;;;;;;;62.30;58.63;;;;;;;19.66;57.83;99858.13;4988075;28;20038;-72
2023/08/01 06:57:45;;;;;;;59.33;56.33;;;;;;;19.66;57.53;99858.91;4980752;28;20038;-71
2023/08/01 07:00:11;;;;;;;62.33;58.95;;;;;;;19.67;57.92;99851.53;4995995;28;20031;-72
2023/08/01 07:02:37;;;;;;;58.33;55.55;;;;;;;19.67;57.94;99855.06;4987195;28;20038;-71
2023/08/01 07:05:02;;;;;;;58.60;55.38;;;;;;;19.68;57.72;99850.41;5004322;28;20107;-71
2023/08/01 07:07:28;;;;;;;58.25;55.28;;;;;;;19.69;57.84;99852.00;5005028;28;20035;-71
2023/08/01 07:09:53;;;;;;;60.38;57.08;;;;;;;19.70;57.90;99858.28;4989949;28;20489;-72
2023/08/01 07:12:18;;;;;;;61.63;57.92;;;;;;;19.71;57.75;99860.72;4988440;28;20064;-72
2023/08/01 07:14:44;;;;;;;58.55;55.53;;;;;;;19.71;58.03;99857.97;4998422;28;20375;-71
2023/08/01 07:17:09;;;;;;;60.22;57.10;;;;;;;19.72;57.48;99859.56;4987180;28;20050;-73
2023/08/01 07:19:35;;;;;;;58.40;55.30;;;;;;;19.74;57.50;99862.78;4992387;28;20406;-72
2023/08/01 07:22:00;;;;;;;58.83;55.40;;;;;;;19.74;58.11;99865.53;4982913;28;20074;-75
2023/08/01 07:24:25;;;;;;;58.90;55.92;;;;;;;19.75;57.81;99867.13;4987223;28;20042;-71
2023/08/01 07:26:51;;;;;;;58.30;55.33;;;;;;;19.78;57.80;99865.69;4985225;28;20121;-72
2023/08/01 07:29:16;;;;;;;58.08;55.15;;;;;;;19.77;57.99;99864.88;4988856;28;20034;-73
2023/08/01 07:31:42;;;;;;;59.83;56.83;;;;;;;19.78;57.75;99868.41;4990629;28;20037;-71
2023/08/01 07:34:08;;;;;;;61.40;58.28;;;;;;;19.79;57.73;99864.56;4988629;28;20384;-72
2023/08/01 07:36:33;;;;;;;59.55;56.42;;;;;;;19.79;58.26;99868.09;4990034;28;20579;-71
2023/08/01 07:38:59;;;;;;;61.97;58.75;;;;;;;19.81;57.69;99871.34;4987439;28;20037;-72
2023/08/01 07:41:24;;;;;;;61.45;58.35;;;;;;;19.83;58.16;99873.72;4991768;28;20395;-74
2023/08/01 07:43:49;;;;;;;59.72;56.92;;;;;;;19.84;58.29;99878.91;4983823;28;20050;-71
2023/08/01 07:46:15;;;;;;;60.20;56.90;;;;;;;19.85;58.13;99882.44;4998833;28;20057;-73
2023/08/01 07:48:40;;;;;;;60.78;57.85;;;;;;;19.87;58.03;99880.97;4982401;28;20073;-73
2023/08/01 07:51:07;;;;;;;58.40;55.42;;;;;;;19.89;58.35;99875.97;4972953;28;20464;-73
2023/08/01 07:53:33;;;;;;;62.25;59.05;;;;;;;19.92;58.11;99876.47;4981980;28;20030;-72
2023/08/01 07:55:59;;;;;;;63.00;59.08;;;;;;;19.93;58.43;99883.53;4988341;28;20038;-79
2023/08/01 07:58:25;;;;;;;64.28;60.25;;;;;;;19.94;58.57;99877.75;5001161;28;20126;-72
2023/08/01 08:00:50;;;;;;;62.47;59.25;;;;;;;19.96;58.34;99877.41;4973724;28;20039;-76
2023/08/01 08:03:15;;;;;;;63.67;59.88;;;;;;;19.98;58.03;99880.63;4982210;28;20069;-73
2023/08/01 08:05:41;;;;;;;60.95;57.85;;;;;;;20.00;58.38;99870.16;4994799;28;20512;-72
2023/08/01 08:08:06;;;;;;;61.97;58.75;;;;;;;20.01;58.50;99869.03;4976422;28;20042;-71
2023/08/01 08:10:32;;;;;;;59.40;56.60;;;;;;;20.03;58.43;99874.97;4986031;28;20046;-72
2023/08/01 08:12:57;;;;;;;63.90;60.70;;;;;;;20.05;58.80;99876.25;4987767;28;20038;-71
2023/08/01 08:15:23;;;;;;;65.22;61.28;;;;;;;20.07;58.70;99879.47;4989467;28;20038;-71
2023/08/01 08:17:49;;;;;;;63.88;60.65;;;;;;;20.10;58.58;99883.50;4989087;28;20049;-73
2023/08/01 08:20:14;;;;;;;63.55;60.20;;;;;;;20.12;58.75;99885.91;4986687;28;20038;-71
2023/08/01 08:22:40;;;;;;;62.75;59.47;;;;;;;20.15;58.68;99890.75;4975225;28;20034;-72
2023/08/01 08:25:05;;;;;;;61.50;58.03;;;;;;;20.16;58.53;99895.91;4988177;28;20045;-71
2023/08/01 08:27:31;;;;;;;61.40;57.50;;;;;;;20.19;58.48;99905.41;4985633;28;20042;-70
2023/08/01 08:29:56;;;;;;;61.15;57.75;;;;;;;20.21;58.68;99914.09;4986891;28;20039;-72
2023/08/01 08:32:22;;;;;;;61.90;58.55;;;;;;;20.24;58.81;99913.47;4992882;28;20483;-70
2023/08/01 08:34:47;;;;;;;61.70;58.42;;;;;;;20.26;58.92;99917.50;4990317;28;20085;-72
2023/08/01 08:37:12;;;;;;;60.25;57.15;;;;;;;20.29;58.46;99918.78;4981269;28;20391;-73
2023/08/01 08:39:38;;;;;;;63.25;60.03;;;;;;;20.30;58.59;99912.94;4989697;28;20035;-73
2023/08/01 08:42:05;;;;;;;63.63;60.10;;;;;;;20.33;58.63;99919.72;4993995;28;20053;-76
2023/08/01 08:44:34;;;;;;;63.25;59.70;;;;;;;20.35;58.67;99913.91;4991186;28;20046;-73
2023/08/01 08:47:06;;;;;;;62.75;59.65;;;;;;;20.37;58.72;99914.38;4990076;28;20039;-72
2023/08/01 08:49:32;;;;;;;63.00;59.78;;;;;;;20.41;58.39;99915.31;4993772;28;20100;-74
2023/08/01 08:51:58;;;;;;;61.00;58.08;;;;;;;20.41;58.38;99918.91;4992709;28;20034;-75
2023/08/01 08:54:24;;;;;;;64.13;60.97;;;;;;;20.44;58.66;99925.66;4995062;28;20176;-73
2023/08/01 08:56:50;;;;;;;64.20;61.00;;;;;;;20.46;58.68;99926.09;4991586;28;20095;-71
2023/08/01 08:59:16;;;;;;;63.88;60.05;;;;;;;20.48;58.38;99923.84;5000743;28;20487;-77
2023/08/01 09:01:41;;;;;;;64.93;61.35;;;;;;;20.50;58.79;99924.34;4991583;28;22123;-73
2023/08/01 09:04:08;;;;;;;65.65;62.22;;;;;;;20.52;58.84;99927.56;5002047;28;20034;-72
2023/08/01 09:06:49;;;;;;;64.72;61.53;;;;;;;20.55;58.57;99934.34;4988924;28;20418;-74
2023/08/01 09:09:15;;;;;;;64.40;61.05;;;;;;;20.56;58.24;99934.00;4990458;28;20034;-71
2023/08/01 09:11:50;;;;;;;62.83;59.88;;;;;;;20.57;58.76;99941.13;4993791;28;20399;-72
2023/08/01 09:14:17;;;;;;;62.03;59.08;;;;;;;20.59;58.31;99938.84;4992368;28;20556;-71
2023/08/01 09:16:43;;;;;;;64.72;61.53;;;;;;;20.59;58.52;99936.13;4981526;28;20468;-70
2023/08/01 09:19:09;;;;;;;63.72;60.55;;;;;;;20.61;58.80;99936.56;4993225;28;20031;-73
2023/08/01 09:21:39;;;;;;;67.53;64.20;;;;;;;20.63;58.64;99928.00;4989875;28;20471;-74
2023/08/01 09:24:12;;;;;;;64.35;60.85;;;;;;;20.64;58.50;99933.19;4990819;28;20371;-74
2023/08/01 09:26:38;;;;;;;66.13;62.42;;;;;;;20.66;58.42;99932.84;4991147;28;20065;-71
2023/08/01 09:29:03;;;;;;;64.43;61.22;;;;;;;20.66;58.20;99943.81;4985438;28;20038;-70
2023/08/01 09:31:31;;;;;;;67.78;64.47;;;;;;;20.69;58.30;99945.91;5000639;28;20035;-71
2023/08/01 09:33:56;;;;;;;63.35;60.45;;;;;;;20.69;58.40;99949.47;4993635;28;20049;-73
2023/08/01 09:36:23;;;;;;;66.70;63.10;;;;;;;20.71;58.68;99938.13;4991272;28;20065;-82
2023/08/01 09:38:49;;;;;;;65.05;61.72;;;;;;;20.71;58.06;99941.72;4993837;28;20467;-74
2023/08/01 09:41:19;;;;;;;63.03;59.83;;;;;;;20.71;58.32;99938.13;4981672;28;20084;-75
2023/08/01 09:43:46;;;;;;;65.93;62.63;;;;;;;20.73;58.23;99949.59;5005612;28;20038;-76
2023/08/01 09:46:12;;;;;;;62.65;59.67;;;;;;;20.72;58.35;99954.28;4988399;28;20033;-75
2023/08/01 09:48:38;;;;;;;70.32;67.00;;;;;;;20.74;58.41;99951.22;4983735;28;20069;-79
2023/08/01 09:51:12;;;;;;;65.55;62.35;;;;;;;20.74;58.22;99951.22;4992526;28;20422;-78
2023/08/01 09:53:50;;;;;;;64.00;61.00;;;;;;;20.73;58.55;99950.41;4974482;28;20065;-75
2023/08/01 09:56:28;;;;;;;64.70;61.08;;;;;;;20.73;58.48;99947.66;4996415;28;20034;-76
2023/08/01 09:58:55;;;;;;;63.90;60.90;;;;;;;20.73;58.11;99944.09;4993640;28;20109;-77
2023/08/01 10:01:23;;;;;;;61.47;58.42;;;;;;;20.74;58.55;99951.22;4990617;28;20058;-73
2023/08/01 10:03:51;;;;;;;65.63;62.37;;;;;;;20.74;58.10;99954.75;4988159;28;20085;-76
2023/08/01 10:06:28;;;;;;;64.80;61.60;;;;;;;20.75;58.12;99945.38;4997397;28;20304;-75
2023/08/01 10:08:53;;;;;;;64.47;61.13;;;;;;;20.77;58.09;99952.50;4996585;28;20030;-74
2023/08/01 10:11:20;;;;;;;65.43;62.13;;;;;;;20.79;58.12;99955.69;4982250;28;20471;-75
2023/08/01 10:13:46;;;;;;;64.57;61.67;;;;;;;20.79;58.37;99956.53;4984049;28;20030;-76
2023/08/01 10:16:13;;;;;;;65.03;62.03;;;;;;;20.81;58.63;99961.66;4987397;28;20037;-74
2023/08/01 10:18:39;;;;;;;65.15;62.15;;;;;;;20.82;58.61;99964.09;4992752;28;20037;-75
2023/08/01 10:21:12;;;;;;;69.10;65.78;;;;;;;20.83;58.61;99960.19;4988507;28;20039;-74
2023/08/01 10:23:39;;;;;;;68.38;64.65;;;;;;;20.86;58.13;99961.47;4990167;28;20092;-75
2023/08/01 10:26:06;;;;;;;67.50;63.78;;;;;;;20.88;58.24;99961.97;4994091;28;20030;-74
2023/08/01 10:28:40;;;;;;;67.03;63.63;;;;;;;20.90;58.49;99967.94;4993867;28;20030;-74
2023/08/01 10:31:11;;;;;;;67.47;64.32;;;;;;;20.90;58.70;99967.94;4983216;28;20022;-73
2023/08/01 10:33:38;;;;;;;64.65;61.55;;;;;;;20.92;58.35;99969.22;4985125;28;20027;-74
2023/08/01 10:36:23;;;;;;;67.55;64.45;;;;;;;20.94;58.08;99963.38;4980240;28;20026;-74
2023/08/01 10:38:51;;;;;;;66.32;62.70;;;;;;;20.95;58.59;99965.78;4986911;28;20034;-77
2023/08/01 10:41:21;;;;;;;66.63;63.27;;;;;;;20.98;58.37;99966.28;4982965;28;20027;-74
2023/08/01 10:43:47;;;;;;;67.93;64.65;;;;;;;20.98;58.23;99961.56;4984380;28;20285;-74
2023/08/01 10:46:12;;;;;;;68.32;64.80;;;;;;;21.00;58.49;99964.81;4991543;28;20033;-74
2023/08/01 10:48:51;;;;;;;69.05;65.75;;;;;;;21.04;58.39;99973.16;4991171;28;20034;-74
2023/08/01 10:51:17;;;;;;;68.63;65.43;;;;;;;21.05;58.16;99970.09;4979329;28;20177;-76
2023/08/01 10:53:42;;;;;;;69.75;66.45;;;;;;;21.07;57.98;99973.31;4986505;28;20082;-74
2023/08/01 10:56:08;;;;;;;67.40;64.22;;;;;;;21.11;58.07;99974.25;4991337;28;20459;-74
2023/08/01 10:58:34;;;;;;;70.15;66.88;;;;;;;21.13;57.89;99971.97;4989699;28;20069;-76
2023/08/01 11:01:00;;;;;;;68.43;65.03;;;;;;;21.15;58.11;99972.47;4990748;28;20455;-76
2023/08/01 11:03:38;;;;;;;70.18;66.97;;;;;;;21.17;58.20;99983.94;4981711;28;20049;-74
2023/08/01 11:06:04;;;;;;;;;;;;;;;21.18;58.46;99985.53;4978498;28;20045;-74
2023/08/01 11:08:40;;;;;;;66.18;63.15;;;;;;;21.21;58.47;99997.00;4991627;28;20301;-74
2023/08/01 11:11:08;;;;;;;67.53;64.43;;;;;;;21.22;58.38;100002.16;4998765;28;20079;-74
2023/08/01 11:13:34;;;;;;;67.35;64.22;;;;;;;21.24;57.93;99999.88;4987055;28;20045;-73